sensor_id;sensor_type;location;lat;lon;timestamp;temperature;humidity
56046;DHT22;41913;51.030;3.706;2023-01-19T00:00:07;17.80;84.10
56046;DHT22;41913;51.030;3.706;2023-01-19T00:02:35;17.80;84.20
56046;DHT22;41913;51.030;3.706;2023-01-19T00:05:04;17.80;84.10
56046;DHT22;41913;51.030;3.706;2023-01-19T00:07:30;17.80;84.20
56046;DHT22;41913;51.030;3.706;2023-01-19T00:09:58;17.80;84.20
56046;DHT22;41913;51.030;3.706;2023-01-19T00:12:25;17.80;84.20
56046;DHT22;41913;51.030;3.706;2023-01-19T00:14:52;17.80;84.20
56046;DHT22;41913;51.030;3.706;2023-01-19T00:17:21;17.80;84.20
56046;DHT22;41913;51.030;3.706;2023-01-19T00:19:47;17.80;84.20
56046;DHT22;41913;51.030;3.706;2023-01-19T00:22:13;17.70;84.20
56046;DHT22;41913;51.030;3.706;2023-01-19T00:24:42;17.70;84.20
56046;DHT22;41913;51.030;3.706;2023-01-19T00:27:09;17.70;84.30
56046;DHT22;41913;51.030;3.706;2023-01-19T00:29:35;17.70;84.30
56046;DHT22;41913;51.030;3.706;2023-01-19T00:32:02;17.60;84.20
56046;DHT22;41913;51.030;3.706;2023-01-19T00:34:30;17.60;84.20
56046;DHT22;41913;51.030;3.706;2023-01-19T00:37:10;17.60;84.20
56046;DHT22;41913;51.030;3.706;2023-01-19T00:39:37;17.60;84.20
56046;DHT22;41913;51.030;3.706;2023-01-19T00:42:04;17.60;84.30
56046;DHT22;41913;51.030;3.706;2023-01-19T00:44:51;17.60;84.30
56046;DHT22;41913;51.030;3.706;2023-01-19T00:47:20;17.50;84.20
56046;DHT22;41913;51.030;3.706;2023-01-19T00:49:51;17.50;84.20
56046;DHT22;41913;51.030;3.706;2023-01-19T00:52:20;17.50;84.20
56046;DHT22;41913;51.030;3.706;2023-01-19T00:54:46;17.50;84.30
56046;DHT22;41913;51.030;3.706;2023-01-19T00:57:14;17.50;84.20
56046;DHT22;41913;51.030;3.706;2023-01-19T00:59:40;17.50;84.20
56046;DHT22;41913;51.030;3.706;2023-01-19T01:02:07;17.50;84.20
56046;DHT22;41913;51.030;3.706;2023-01-19T01:04:32;17.40;84.20
56046;DHT22;41913;51.030;3.706;2023-01-19T01:06:58;17.50;84.20
56046;DHT22;41913;51.030;3.706;2023-01-19T01:09:26;17.50;84.30
56046;DHT22;41913;51.030;3.706;2023-01-19T01:11:53;17.40;84.20
56046;DHT22;41913;51.030;3.706;2023-01-19T01:14:21;17.40;84.20
56046;DHT22;41913;51.030;3.706;2023-01-19T01:16:49;17.40;84.20
56046;DHT22;41913;51.030;3.706;2023-01-19T01:19:15;17.40;84.30
56046;DHT22;41913;51.030;3.706;2023-01-19T01:21:42;17.40;84.20
56046;DHT22;41913;51.030;3.706;2023-01-19T01:24:08;17.40;84.20
56046;DHT22;41913;51.030;3.706;2023-01-19T01:26:34;17.40;84.20
56046;DHT22;41913;51.030;3.706;2023-01-19T01:29:00;17.40;84.80
56046;DHT22;41913;51.030;3.706;2023-01-19T01:31:29;17.30;84.20
56046;DHT22;41913;51.030;3.706;2023-01-19T01:33:55;17.30;84.20
56046;DHT22;41913;51.030;3.706;2023-01-19T01:36:23;17.30;84.20
56046;DHT22;41913;51.030;3.706;2023-01-19T01:38:52;17.30;84.20
56046;DHT22;41913;51.030;3.706;2023-01-19T01:41:24;17.30;84.20
56046;DHT22;41913;51.030;3.706;2023-01-19T01:43:55;17.30;84.20
56046;DHT22;41913;51.030;3.706;2023-01-19T01:46:27;17.30;84.20
56046;DHT22;41913;51.030;3.706;2023-01-19T01:49:06;17.30;84.20
56046;DHT22;41913;51.030;3.706;2023-01-19T01:54:32;17.20;84.20
56046;DHT22;41913;51.030;3.706;2023-01-19T01:57:02;17.20;84.20
56046;DHT22;41913;51.030;3.706;2023-01-19T01:59:35;17.20;84.20
56046;DHT22;41913;51.030;3.706;2023-01-19T02:02:22;17.20;84.20
56046;DHT22;41913;51.030;3.706;2023-01-19T02:05:14;17.20;84.20
56046;DHT22;41913;51.030;3.706;2023-01-19T02:08:10;17.20;84.20
56046;DHT22;41913;51.030;3.706;2023-01-19T02:10:57;17.20;84.20
56046;DHT22;41913;51.030;3.706;2023-01-19T02:13:44;17.10;84.20
56046;DHT22;41913;51.030;3.706;2023-01-19T02:16:13;17.10;84.20
56046;DHT22;41913;51.030;3.706;2023-01-19T02:18:39;17.10;84.20
56046;DHT22;41913;51.030;3.706;2023-01-19T02:21:12;17.10;84.20
56046;DHT22;41913;51.030;3.706;2023-01-19T02:26:09;17.10;84.20
56046;DHT22;41913;51.030;3.706;2023-01-19T02:28:39;17.10;84.20
56046;DHT22;41913;51.030;3.706;2023-01-19T02:31:06;17.10;84.20
56046;DHT22;41913;51.030;3.706;2023-01-19T02:33:33;17.10;84.20
56046;DHT22;41913;51.030;3.706;2023-01-19T02:35:59;17.00;84.10
56046;DHT22;41913;51.030;3.706;2023-01-19T02:38:27;17.00;84.20
56046;DHT22;41913;51.030;3.706;2023-01-19T02:40:58;17.00;84.20
56046;DHT22;41913;51.030;3.706;2023-01-19T02:43:29;17.00;84.20
56046;DHT22;41913;51.030;3.706;2023-01-19T02:45:57;17.00;84.20
56046;DHT22;41913;51.030;3.706;2023-01-19T02:48:24;17.00;84.10
56046;DHT22;41913;51.030;3.706;2023-01-19T02:50:56;17.00;84.20
56046;DHT22;41913;51.030;3.706;2023-01-19T02:59:26;16.90;84.10
56046;DHT22;41913;51.030;3.706;2023-01-19T03:02:22;16.90;84.00
56046;DHT22;41913;51.030;3.706;2023-01-19T03:08:10;16.90;84.10
56046;DHT22;41913;51.030;3.706;2023-01-19T03:10:56;16.90;84.10
56046;DHT22;41913;51.030;3.706;2023-01-19T03:14:06;16.90;84.20
56046;DHT22;41913;51.030;3.706;2023-01-19T03:16:50;16.90;84.10
56046;DHT22;41913;51.030;3.706;2023-01-19T03:19:26;16.80;84.00
56046;DHT22;41913;51.030;3.706;2023-01-19T03:22:00;16.80;84.10
56046;DHT22;41913;51.030;3.706;2023-01-19T03:24:35;16.80;84.10
56046;DHT22;41913;51.030;3.706;2023-01-19T03:27:11;16.80;84.10
56046;DHT22;41913;51.030;3.706;2023-01-19T03:29:41;16.80;84.10
56046;DHT22;41913;51.030;3.706;2023-01-19T03:32:15;16.80;84.10
56046;DHT22;41913;51.030;3.706;2023-01-19T03:34:44;16.80;84.60
56046;DHT22;41913;51.030;3.706;2023-01-19T03:37:18;16.80;84.00
56046;DHT22;41913;51.030;3.706;2023-01-19T03:39:45;16.80;84.00
56046;DHT22;41913;51.030;3.706;2023-01-19T03:42:13;16.80;84.00
56046;DHT22;41913;51.030;3.706;2023-01-19T03:44:44;16.80;84.00
56046;DHT22;41913;51.030;3.706;2023-01-19T03:47:16;16.80;84.00
56046;DHT22;41913;51.030;3.706;2023-01-19T03:49:44;16.70;83.90
56046;DHT22;41913;51.030;3.706;2023-01-19T03:52:10;16.70;84.00
56046;DHT22;41913;51.030;3.706;2023-01-19T03:54:43;16.70;83.90
56046;DHT22;41913;51.030;3.706;2023-01-19T03:57:10;16.70;83.90
56046;DHT22;41913;51.030;3.706;2023-01-19T03:59:35;16.70;83.90
56046;DHT22;41913;51.030;3.706;2023-01-19T04:02:02;16.70;83.90
56046;DHT22;41913;51.030;3.706;2023-01-19T04:04:29;16.70;83.90
56046;DHT22;41913;51.030;3.706;2023-01-19T04:06:55;16.70;84.00
56046;DHT22;41913;51.030;3.706;2023-01-19T04:09:22;16.70;83.90
56046;DHT22;41913;51.030;3.706;2023-01-19T04:11:47;16.70;83.90
56046;DHT22;41913;51.030;3.706;2023-01-19T04:14:13;16.70;83.90
56046;DHT22;41913;51.030;3.706;2023-01-19T04:16:41;16.70;83.90
56046;DHT22;41913;51.030;3.706;2023-01-19T04:19:06;16.70;83.90
56046;DHT22;41913;51.030;3.706;2023-01-19T04:21:34;16.70;83.90
56046;DHT22;41913;51.030;3.706;2023-01-19T04:24:03;16.60;83.80
56046;DHT22;41913;51.030;3.706;2023-01-19T04:26:30;16.70;83.90
56046;DHT22;41913;51.030;3.706;2023-01-19T04:28:56;16.60;83.90
56046;DHT22;41913;51.030;3.706;2023-01-19T04:31:23;16.60;83.90
56046;DHT22;41913;51.030;3.706;2023-01-19T04:33:50;16.60;83.90
56046;DHT22;41913;51.030;3.706;2023-01-19T04:36:16;16.60;83.90
56046;DHT22;41913;51.030;3.706;2023-01-19T04:38:43;16.60;83.90
56046;DHT22;41913;51.030;3.706;2023-01-19T04:41:14;16.60;84.40
56046;DHT22;41913;51.030;3.706;2023-01-19T04:43:40;16.60;84.10
56046;DHT22;41913;51.030;3.706;2023-01-19T04:46:07;16.60;83.90
56046;DHT22;41913;51.030;3.706;2023-01-19T04:48:34;16.60;83.90
56046;DHT22;41913;51.030;3.706;2023-01-19T04:50:59;16.60;84.40
56046;DHT22;41913;51.030;3.706;2023-01-19T04:53:26;16.50;83.80
56046;DHT22;41913;51.030;3.706;2023-01-19T04:55:53;16.50;83.80
56046;DHT22;41913;51.030;3.706;2023-01-19T04:58:20;16.50;83.80
56046;DHT22;41913;51.030;3.706;2023-01-19T05:00:46;16.50;83.80
56046;DHT22;41913;51.030;3.706;2023-01-19T05:03:13;16.60;84.40
56046;DHT22;41913;51.030;3.706;2023-01-19T05:05:41;16.60;83.90
56046;DHT22;41913;51.030;3.706;2023-01-19T05:08:10;16.50;83.80
56046;DHT22;41913;51.030;3.706;2023-01-19T05:10:36;16.50;83.80
56046;DHT22;41913;51.030;3.706;2023-01-19T05:13:02;16.50;83.80
56046;DHT22;41913;51.030;3.706;2023-01-19T05:15:28;16.50;83.80
56046;DHT22;41913;51.030;3.706;2023-01-19T05:17:54;16.50;83.80
56046;DHT22;41913;51.030;3.706;2023-01-19T05:20:23;16.50;83.80
56046;DHT22;41913;51.030;3.706;2023-01-19T05:22:51;16.50;83.80
56046;DHT22;41913;51.030;3.706;2023-01-19T05:25:18;16.40;83.80
56046;DHT22;41913;51.030;3.706;2023-01-19T05:27:44;16.40;83.80
56046;DHT22;41913;51.030;3.706;2023-01-19T05:30:11;16.40;83.80
56046;DHT22;41913;51.030;3.706;2023-01-19T05:32:40;16.50;83.80
56046;DHT22;41913;51.030;3.706;2023-01-19T05:35:10;16.50;83.90
56046;DHT22;41913;51.030;3.706;2023-01-19T05:37:37;16.50;83.80
56046;DHT22;41913;51.030;3.706;2023-01-19T05:40:03;16.50;83.80
56046;DHT22;41913;51.030;3.706;2023-01-19T05:42:30;16.50;83.60
56046;DHT22;41913;51.030;3.706;2023-01-19T05:44:56;16.60;83.70
56046;DHT22;41913;51.030;3.706;2023-01-19T05:47:24;16.60;83.60
56046;DHT22;41913;51.030;3.706;2023-01-19T05:49:51;16.70;83.60
56046;DHT22;41913;51.030;3.706;2023-01-19T05:52:19;16.70;83.50
56046;DHT22;41913;51.030;3.706;2023-01-19T05:54:47;16.80;83.40
56046;DHT22;41913;51.030;3.706;2023-01-19T05:57:14;16.90;83.90
56046;DHT22;41913;51.030;3.706;2023-01-19T05:59:39;17.00;83.30
56046;DHT22;41913;51.030;3.706;2023-01-19T06:02:05;17.10;83.20
56046;DHT22;41913;51.030;3.706;2023-01-19T06:04:31;17.20;83.20
56046;DHT22;41913;51.030;3.706;2023-01-19T06:06:57;17.20;83.00
56046;DHT22;41913;51.030;3.706;2023-01-19T06:09:22;17.30;83.00
56046;DHT22;41913;51.030;3.706;2023-01-19T06:11:48;17.50;82.90
56046;DHT22;41913;51.030;3.706;2023-01-19T06:14:15;17.50;82.80
56046;DHT22;41913;51.030;3.706;2023-01-19T06:16:42;17.60;82.80
56046;DHT22;41913;51.030;3.706;2023-01-19T06:19:08;17.80;82.70
56046;DHT22;41913;51.030;3.706;2023-01-19T06:21:36;17.90;82.70
56046;DHT22;41913;51.030;3.706;2023-01-19T06:24:02;18.10;82.80
56046;DHT22;41913;51.030;3.706;2023-01-19T06:26:28;18.40;83.20
56046;DHT22;41913;51.030;3.706;2023-01-19T06:28:54;18.60;83.30
56046;DHT22;41913;51.030;3.706;2023-01-19T06:31:20;18.70;83.40
56046;DHT22;41913;51.030;3.706;2023-01-19T06:33:48;18.90;83.70
56046;DHT22;41913;51.030;3.706;2023-01-19T06:36:14;19.00;84.10
56046;DHT22;41913;51.030;3.706;2023-01-19T06:38:40;19.10;84.40
56046;DHT22;41913;51.030;3.706;2023-01-19T06:41:05;19.20;84.90
56046;DHT22;41913;51.030;3.706;2023-01-19T06:43:33;19.30;85.50
56046;DHT22;41913;51.030;3.706;2023-01-19T06:46:02;19.30;85.90
56046;DHT22;41913;51.030;3.706;2023-01-19T06:48:31;19.40;86.30
56046;DHT22;41913;51.030;3.706;2023-01-19T06:50:59;19.50;86.70
56046;DHT22;41913;51.030;3.706;2023-01-19T06:53:26;19.50;86.90
56046;DHT22;41913;51.030;3.706;2023-01-19T06:56:00;19.50;87.00
56046;DHT22;41913;51.030;3.706;2023-01-19T06:58:28;19.50;86.90
56046;DHT22;41913;51.030;3.706;2023-01-19T07:00:59;19.50;86.70
56046;DHT22;41913;51.030;3.706;2023-01-19T07:03:27;19.60;86.50
56046;DHT22;41913;51.030;3.706;2023-01-19T07:05:54;19.60;86.20
56046;DHT22;41913;51.030;3.706;2023-01-19T07:08:21;19.60;86.00
56046;DHT22;41913;51.030;3.706;2023-01-19T07:10:48;19.60;86.00
56046;DHT22;41913;51.030;3.706;2023-01-19T07:13:15;19.60;85.90
56046;DHT22;41913;51.030;3.706;2023-01-19T07:15:42;19.70;85.90
56046;DHT22;41913;51.030;3.706;2023-01-19T07:18:09;19.70;85.70
56046;DHT22;41913;51.030;3.706;2023-01-19T07:20:36;19.70;85.60
56046;DHT22;41913;51.030;3.706;2023-01-19T07:23:02;19.70;85.40
56046;DHT22;41913;51.030;3.706;2023-01-19T07:25:29;19.70;85.30
56046;DHT22;41913;51.030;3.706;2023-01-19T07:27:57;19.80;85.30
56046;DHT22;41913;51.030;3.706;2023-01-19T07:30:22;19.80;85.30
56046;DHT22;41913;51.030;3.706;2023-01-19T07:32:48;19.80;85.50
56046;DHT22;41913;51.030;3.706;2023-01-19T07:35:14;19.80;85.70
56046;DHT22;41913;51.030;3.706;2023-01-19T07:37:40;19.80;86.40
56046;DHT22;41913;51.030;3.706;2023-01-19T07:40:06;19.80;86.00
56046;DHT22;41913;51.030;3.706;2023-01-19T07:42:31;19.80;86.00
56046;DHT22;41913;51.030;3.706;2023-01-19T07:44:57;19.80;86.00
56046;DHT22;41913;51.030;3.706;2023-01-19T07:47:26;19.80;86.00
56046;DHT22;41913;51.030;3.706;2023-01-19T07:49:52;19.80;86.10
56046;DHT22;41913;51.030;3.706;2023-01-19T07:52:19;19.80;86.20
56046;DHT22;41913;51.030;3.706;2023-01-19T07:54:45;19.80;86.30
56046;DHT22;41913;51.030;3.706;2023-01-19T07:57:16;19.80;86.40
56046;DHT22;41913;51.030;3.706;2023-01-19T07:59:44;19.80;86.40
56046;DHT22;41913;51.030;3.706;2023-01-19T08:02:10;19.80;86.40
56046;DHT22;41913;51.030;3.706;2023-01-19T08:04:38;19.80;86.30
56046;DHT22;41913;51.030;3.706;2023-01-19T08:07:08;19.80;86.10
56046;DHT22;41913;51.030;3.706;2023-01-19T08:09:34;19.80;85.90
56046;DHT22;41913;51.030;3.706;2023-01-19T08:12:00;19.80;85.70
56046;DHT22;41913;51.030;3.706;2023-01-19T08:14:26;19.80;85.60
56046;DHT22;41913;51.030;3.706;2023-01-19T08:16:53;19.80;85.40
56046;DHT22;41913;51.030;3.706;2023-01-19T08:19:20;19.80;85.30
56046;DHT22;41913;51.030;3.706;2023-01-19T08:21:48;19.90;85.20
56046;DHT22;41913;51.030;3.706;2023-01-19T08:24:18;19.80;85.00
56046;DHT22;41913;51.030;3.706;2023-01-19T08:26:49;19.90;85.50
56046;DHT22;41913;51.030;3.706;2023-01-19T08:29:15;19.80;85.30
56046;DHT22;41913;51.030;3.706;2023-01-19T08:31:42;19.90;85.30
56046;DHT22;41913;51.030;3.706;2023-01-19T08:34:08;19.80;84.60
56046;DHT22;41913;51.030;3.706;2023-01-19T08:36:34;19.90;85.20
56046;DHT22;41913;51.030;3.706;2023-01-19T08:39:02;19.90;84.60
56046;DHT22;41913;51.030;3.706;2023-01-19T08:41:30;19.90;84.50
56046;DHT22;41913;51.030;3.706;2023-01-19T08:43:56;19.90;84.40
56046;DHT22;41913;51.030;3.706;2023-01-19T08:46:22;19.90;84.30
56046;DHT22;41913;51.030;3.706;2023-01-19T08:48:54;19.90;84.20
56046;DHT22;41913;51.030;3.706;2023-01-19T08:51:24;19.90;84.20
56046;DHT22;41913;51.030;3.706;2023-01-19T08:53:54;19.90;84.60
56046;DHT22;41913;51.030;3.706;2023-01-19T08:56:22;19.90;84.60
56046;DHT22;41913;51.030;3.706;2023-01-19T08:58:50;19.90;84.00
56046;DHT22;41913;51.030;3.706;2023-01-19T09:01:18;19.90;83.90
56046;DHT22;41913;51.030;3.706;2023-01-19T09:03:47;19.90;83.80
56046;DHT22;41913;51.030;3.706;2023-01-19T09:06:15;19.90;83.80
56046;DHT22;41913;51.030;3.706;2023-01-19T09:08:44;19.90;83.70
56046;DHT22;41913;51.030;3.706;2023-01-19T09:11:12;19.90;84.20
56046;DHT22;41913;51.030;3.706;2023-01-19T09:13:39;20.00;83.70
56046;DHT22;41913;51.030;3.706;2023-01-19T09:16:06;19.90;83.50
56046;DHT22;41913;51.030;3.706;2023-01-19T09:18:35;19.90;83.50
56046;DHT22;41913;51.030;3.706;2023-01-19T09:21:02;19.90;83.50
56046;DHT22;41913;51.030;3.706;2023-01-19T09:23:36;19.90;83.40
56046;DHT22;41913;51.030;3.706;2023-01-19T09:26:04;20.00;83.40
56046;DHT22;41913;51.030;3.706;2023-01-19T09:28:32;20.00;83.40
56046;DHT22;41913;51.030;3.706;2023-01-19T09:31:08;20.00;83.30
56046;DHT22;41913;51.030;3.706;2023-01-19T09:33:37;20.00;83.30
56046;DHT22;41913;51.030;3.706;2023-01-19T09:36:10;20.00;83.20
56046;DHT22;41913;51.030;3.706;2023-01-19T09:38:37;20.00;83.20
56046;DHT22;41913;51.030;3.706;2023-01-19T09:41:15;20.00;83.10
56046;DHT22;41913;51.030;3.706;2023-01-19T09:44:02;20.00;83.10
56046;DHT22;41913;51.030;3.706;2023-01-19T09:46:40;20.00;83.10
56046;DHT22;41913;51.030;3.706;2023-01-19T09:49:16;20.00;83.00
56046;DHT22;41913;51.030;3.706;2023-01-19T09:51:47;20.00;83.00
56046;DHT22;41913;51.030;3.706;2023-01-19T09:55:00;20.00;83.00
56046;DHT22;41913;51.030;3.706;2023-01-19T09:57:12;20.10;83.00
56046;DHT22;41913;51.030;3.706;2023-01-19T09:59:41;20.00;83.00
56046;DHT22;41913;51.030;3.706;2023-01-19T10:06:01;20.10;82.90
56046;DHT22;41913;51.030;3.706;2023-01-19T10:08:39;20.10;82.80
56046;DHT22;41913;51.030;3.706;2023-01-19T10:13:57;20.10;83.10
56046;DHT22;41913;51.030;3.706;2023-01-19T10:19:28;20.00;82.70
56046;DHT22;41913;51.030;3.706;2023-01-19T10:21:58;19.90;82.70
56046;DHT22;41913;51.030;3.706;2023-01-19T10:24:29;19.90;82.70
56046;DHT22;41913;51.030;3.706;2023-01-19T10:26:58;19.90;82.70
56046;DHT22;41913;51.030;3.706;2023-01-19T10:29:33;19.80;82.60
56046;DHT22;41913;51.030;3.706;2023-01-19T10:32:07;19.80;82.80
56046;DHT22;41913;51.030;3.706;2023-01-19T10:34:34;19.70;82.80
56046;DHT22;41913;51.030;3.706;2023-01-19T10:39:58;19.60;82.80
56046;DHT22;41913;51.030;3.706;2023-01-19T10:42:28;19.50;83.40
56046;DHT22;41913;51.030;3.706;2023-01-19T10:45:13;19.50;82.90
56046;DHT22;41913;51.030;3.706;2023-01-19T10:47:43;19.40;82.90
56046;DHT22;41913;51.030;3.706;2023-01-19T10:50:30;19.40;83.00
56046;DHT22;41913;51.030;3.706;2023-01-19T10:52:58;19.30;83.00
56046;DHT22;41913;51.030;3.706;2023-01-19T10:55:32;19.30;83.20
56046;DHT22;41913;51.030;3.706;2023-01-19T10:57:59;19.20;83.20
56046;DHT22;41913;51.030;3.706;2023-01-19T11:00:40;19.20;83.30
56046;DHT22;41913;51.030;3.706;2023-01-19T11:03:29;19.10;83.40
56046;DHT22;41913;51.030;3.706;2023-01-19T11:06:22;19.10;83.40
56046;DHT22;41913;51.030;3.706;2023-01-19T11:08:54;19.00;83.40
56046;DHT22;41913;51.030;3.706;2023-01-19T11:11:41;19.00;83.50
56046;DHT22;41913;51.030;3.706;2023-01-19T11:14:16;18.90;83.50
56046;DHT22;41913;51.030;3.706;2023-01-19T11:16:52;18.90;84.00
56046;DHT22;41913;51.030;3.706;2023-01-19T11:19:31;18.80;83.40
56046;DHT22;41913;51.030;3.706;2023-01-19T11:24:37;18.70;83.30
56046;DHT22;41913;51.030;3.706;2023-01-19T11:27:10;18.70;83.30
56046;DHT22;41913;51.030;3.706;2023-01-19T11:29:50;18.70;83.20
56046;DHT22;41913;51.030;3.706;2023-01-19T11:32:20;18.60;83.20
56046;DHT22;41913;51.030;3.706;2023-01-19T11:34:47;18.60;83.10
56046;DHT22;41913;51.030;3.706;2023-01-19T11:39:54;18.50;83.10
56046;DHT22;41913;51.030;3.706;2023-01-19T11:42:23;18.50;83.00
56046;DHT22;41913;51.030;3.706;2023-01-19T11:44:57;18.40;83.00
56046;DHT22;41913;51.030;3.706;2023-01-19T11:47:47;18.40;83.00
56046;DHT22;41913;51.030;3.706;2023-01-19T11:50:44;18.40;82.90
56046;DHT22;41913;51.030;3.706;2023-01-19T11:53:23;18.30;82.90
56046;DHT22;41913;51.030;3.706;2023-01-19T11:56:12;18.30;82.90
56046;DHT22;41913;51.030;3.706;2023-01-19T11:58:42;18.30;82.90
56046;DHT22;41913;51.030;3.706;2023-01-19T12:01:31;18.20;82.90
56046;DHT22;41913;51.030;3.706;2023-01-19T12:04:14;18.20;82.90
56046;DHT22;41913;51.030;3.706;2023-01-19T12:06:47;18.20;82.90
56046;DHT22;41913;51.030;3.706;2023-01-19T12:09:31;18.20;82.90
56046;DHT22;41913;51.030;3.706;2023-01-19T12:17:33;18.10;83.00
56046;DHT22;41913;51.030;3.706;2023-01-19T12:20:32;18.10;83.00
56046;DHT22;41913;51.030;3.706;2023-01-19T12:25:45;18.00;83.00
56046;DHT22;41913;51.030;3.706;2023-01-19T12:28:17;18.00;83.00
56046;DHT22;41913;51.030;3.706;2023-01-19T12:30:45;18.00;83.00
56046;DHT22;41913;51.030;3.706;2023-01-19T12:33:35;17.90;83.00
56046;DHT22;41913;51.030;3.706;2023-01-19T12:39:16;17.90;83.00
56046;DHT22;41913;51.030;3.706;2023-01-19T12:41:43;17.80;82.90
56046;DHT22;41913;51.030;3.706;2023-01-19T12:54:37;17.80;83.50
56046;DHT22;41913;51.030;3.706;2023-01-19T13:00:05;17.80;83.00
56046;DHT22;41913;51.030;3.706;2023-01-19T13:02:53;17.70;82.90
56046;DHT22;41913;51.030;3.706;2023-01-19T13:21:39;17.60;83.00
56046;DHT22;41913;51.030;3.706;2023-01-19T13:24:12;17.60;83.00
56046;DHT22;41913;51.030;3.706;2023-01-19T13:26:54;17.60;83.10
56046;DHT22;41913;51.030;3.706;2023-01-19T13:29:33;17.60;83.10
56046;DHT22;41913;51.030;3.706;2023-01-19T13:32:05;17.50;83.00
56046;DHT22;41913;51.030;3.706;2023-01-19T13:34:55;17.50;83.10
56046;DHT22;41913;51.030;3.706;2023-01-19T13:37:31;17.50;83.10
56046;DHT22;41913;51.030;3.706;2023-01-19T13:39:59;17.50;83.10
56046;DHT22;41913;51.030;3.706;2023-01-19T13:42:29;17.50;83.20
56046;DHT22;41913;51.030;3.706;2023-01-19T13:47:46;17.50;83.20
56046;DHT22;41913;51.030;3.706;2023-01-19T13:50:30;17.50;83.20
56046;DHT22;41913;51.030;3.706;2023-01-19T13:52:59;17.50;83.20
56046;DHT22;41913;51.030;3.706;2023-01-19T13:55:30;17.40;83.20
56046;DHT22;41913;51.030;3.706;2023-01-19T13:57:57;17.40;83.30
56046;DHT22;41913;51.030;3.706;2023-01-19T14:00:26;17.40;83.30
56046;DHT22;41913;51.030;3.706;2023-01-19T14:03:14;17.40;83.30
56046;DHT22;41913;51.030;3.706;2023-01-19T14:05:43;17.40;83.80
56046;DHT22;41913;51.030;3.706;2023-01-19T14:08:21;17.40;83.30
56046;DHT22;41913;51.030;3.706;2023-01-19T14:13:42;17.40;83.40
56046;DHT22;41913;51.030;3.706;2023-01-19T14:16:23;17.30;83.30
56046;DHT22;41913;51.030;3.706;2023-01-19T14:18:59;17.30;83.90
56046;DHT22;41913;51.030;3.706;2023-01-19T14:21:37;17.20;83.30
56046;DHT22;41913;51.030;3.706;2023-01-19T14:24:15;17.30;83.40
56046;DHT22;41913;51.030;3.706;2023-01-19T14:26:47;17.30;83.40
56046;DHT22;41913;51.030;3.706;2023-01-19T14:29:27;17.30;83.50
56046;DHT22;41913;51.030;3.706;2023-01-19T14:32:13;17.30;83.50
56046;DHT22;41913;51.030;3.706;2023-01-19T14:35:12;17.20;83.40
56046;DHT22;41913;51.030;3.706;2023-01-19T14:37:48;17.30;83.50
56046;DHT22;41913;51.030;3.706;2023-01-19T14:40:18;17.20;83.50
56046;DHT22;41913;51.030;3.706;2023-01-19T14:42:54;17.20;83.50
56046;DHT22;41913;51.030;3.706;2023-01-19T14:45:29;17.20;83.50
56046;DHT22;41913;51.030;3.706;2023-01-19T14:48:05;17.20;83.50
56046;DHT22;41913;51.030;3.706;2023-01-19T14:50:39;17.20;83.50
56046;DHT22;41913;51.030;3.706;2023-01-19T14:53:13;17.20;83.50
56046;DHT22;41913;51.030;3.706;2023-01-19T14:55:50;17.20;83.50
56046;DHT22;41913;51.030;3.706;2023-01-19T14:58:22;17.20;83.50
56046;DHT22;41913;51.030;3.706;2023-01-19T15:00:50;17.20;83.60
56046;DHT22;41913;51.030;3.706;2023-01-19T15:03:22;17.10;83.50
56046;DHT22;41913;51.030;3.706;2023-01-19T15:05:50;17.10;83.50
56046;DHT22;41913;51.030;3.706;2023-01-19T15:08:30;17.10;83.50
56046;DHT22;41913;51.030;3.706;2023-01-19T15:11:09;17.10;83.50
56046;DHT22;41913;51.030;3.706;2023-01-19T15:13:38;17.10;83.60
56046;DHT22;41913;51.030;3.706;2023-01-19T15:16:07;17.10;83.60
56046;DHT22;41913;51.030;3.706;2023-01-19T15:18:36;17.10;83.60
56046;DHT22;41913;51.030;3.706;2023-01-19T15:21:03;17.10;83.60
56046;DHT22;41913;51.030;3.706;2023-01-19T15:23:32;17.10;83.60
56046;DHT22;41913;51.030;3.706;2023-01-19T15:26:01;17.10;83.60
56046;DHT22;41913;51.030;3.706;2023-01-19T15:28:28;17.10;83.60
56046;DHT22;41913;51.030;3.706;2023-01-19T15:30:57;17.10;83.70
56046;DHT22;41913;51.030;3.706;2023-01-19T15:33:28;17.00;83.60
56046;DHT22;41913;51.030;3.706;2023-01-19T15:35:58;17.00;83.60
56046;DHT22;41913;51.030;3.706;2023-01-19T15:38:24;17.10;83.70
56046;DHT22;41913;51.030;3.706;2023-01-19T15:40:54;17.00;84.20
56046;DHT22;41913;51.030;3.706;2023-01-19T15:43:20;17.00;83.60
56046;DHT22;41913;51.030;3.706;2023-01-19T15:46:01;16.90;83.60
56046;DHT22;41913;51.030;3.706;2023-01-19T15:48:28;17.00;83.60
56046;DHT22;41913;51.030;3.706;2023-01-19T15:50:56;17.00;83.60
56046;DHT22;41913;51.030;3.706;2023-01-19T15:53:22;17.00;83.60
56046;DHT22;41913;51.030;3.706;2023-01-19T15:55:52;16.90;83.60
56046;DHT22;41913;51.030;3.706;2023-01-19T15:58:22;17.00;83.70
56046;DHT22;41913;51.030;3.706;2023-01-19T16:00:56;16.90;83.60
56046;DHT22;41913;51.030;3.706;2023-01-19T16:03:24;16.90;83.60
56046;DHT22;41913;51.030;3.706;2023-01-19T16:05:50;17.00;83.70
56046;DHT22;41913;51.030;3.706;2023-01-19T16:08:17;16.90;84.20
56046;DHT22;41913;51.030;3.706;2023-01-19T16:10:44;16.90;83.60
56046;DHT22;41913;51.030;3.706;2023-01-19T16:13:11;16.90;83.60
56046;DHT22;41913;51.030;3.706;2023-01-19T16:15:37;16.90;83.60
56046;DHT22;41913;51.030;3.706;2023-01-19T16:18:05;16.90;83.60
56046;DHT22;41913;51.030;3.706;2023-01-19T16:20:31;16.90;83.70
56046;DHT22;41913;51.030;3.706;2023-01-19T16:22:58;16.90;83.70
56046;DHT22;41913;51.030;3.706;2023-01-19T16:25:25;16.80;83.60
56046;DHT22;41913;51.030;3.706;2023-01-19T16:27:53;16.80;83.60
56046;DHT22;41913;51.030;3.706;2023-01-19T16:30:19;16.80;83.60
56046;DHT22;41913;51.030;3.706;2023-01-19T16:32:48;16.90;83.70
56046;DHT22;41913;51.030;3.706;2023-01-19T16:35:15;16.80;83.70
56046;DHT22;41913;51.030;3.706;2023-01-19T16:37:42;16.80;83.70
56046;DHT22;41913;51.030;3.706;2023-01-19T16:40:10;16.80;83.70
56046;DHT22;41913;51.030;3.706;2023-01-19T16:42:38;16.80;83.70
56046;DHT22;41913;51.030;3.706;2023-01-19T16:45:05;16.80;83.70
56046;DHT22;41913;51.030;3.706;2023-01-19T16:47:31;16.80;83.70
56046;DHT22;41913;51.030;3.706;2023-01-19T16:49:58;16.70;83.70
56046;DHT22;41913;51.030;3.706;2023-01-19T16:52:27;16.70;83.70
56046;DHT22;41913;51.030;3.706;2023-01-19T16:54:54;16.70;83.70
56046;DHT22;41913;51.030;3.706;2023-01-19T16:57:22;16.80;83.80
56046;DHT22;41913;51.030;3.706;2023-01-19T16:59:48;16.70;83.70
56046;DHT22;41913;51.030;3.706;2023-01-19T17:02:15;16.70;83.70
56046;DHT22;41913;51.030;3.706;2023-01-19T17:04:41;16.70;83.70
56046;DHT22;41913;51.030;3.706;2023-01-19T17:07:07;16.70;83.80
56046;DHT22;41913;51.030;3.706;2023-01-19T17:09:33;16.70;83.80